Faneromeni — SVKG — position and weather

sailwx.info

Track history (hours):
 
Tides and Currents Weather Stations Pressure Air Temp Water Temp Dewpoint Dewpoint Depression Visibility Wind Speed Wind Dir Waves Ship Positions

Faneromeni

Last reported at 2016-Dec-07 19:06 UTC. Time now 2016-Dec-09 21:17 UTC.
Position N 36°22' W 002°11'.

Length 230 m; draft 12.5 m.

Type: Ship. MMSI: 240576000.

Date/timePositionNaut miles runAvg speedWind from/ knotsBaromVisibWave heightAir tempDewpointWater temp
2016-Dec-07 19:06N 36°22' W 002°11'6 9.5
2016-Dec-07 18:28N 36°21' W 002°18'8 9.2
2016-Dec-07 17:33N 36°20' W 002°29'9 9.4
2016-Dec-07 16:33N 36°18' W 002°40'1110.1
2016-Dec-07 15:30N 36°17' W 002°53'1010.4
2016-Dec-07 14:32N 36°15' W 003°05'10211.3
2016-Dec-07 05:33N 36°01' W 005°10'1010.1
2016-Dec-07 04:33N 36°05' W 005°22'3 2.5
2016-Dec-07 03:11N 36°08' W 005°23'0 0.2
2016-Dec-07 02:29N 36°08' W 005°23'0 0.1
2016-Dec-07 01:32N 36°08' W 005°23'0 0.1
2016-Dec-06 23:20N 36°08' W 005°23'0 0.0
2016-Dec-06 22:29N 36°08' W 005°23'0 0.0
2016-Dec-06 21:32N 36°08' W 005°23'0 0.2
2016-Dec-06 20:32N 36°08' W 005°23'4 0.8
2016-Dec-06 15:34N 36°06' W 005°19'5 4.6
2016-Dec-06 14:33N 36°07' W 005°13'2 2.1
2016-Dec-06 13:33N 36°06' W 005°15'4 3.7
2016-Dec-06 12:31N 36°03' W 005°18'10 9.9
2016-Dec-06 11:33N 35°57' W 005°28'256 9.8
2016-Dec-05 09:27N 38°15' W 009°59'1011.1
2016-Dec-05 08:33N 38°25' W 010°01'1110.7
2016-Dec-05 07:33N 38°35' W 010°04'1010.5
2016-Dec-05 06:33N 38°46' W 010°07'1010.1
2016-Dec-05 05:33N 38°56' W 010°07'10 9.7
2016-Dec-05 04:33N 39°05' W 010°06'9 9.3
2016-Dec-05 03:33N 39°15' W 010°07'10 9.8
2016-Dec-05 02:33N 39°24' W 010°06'50910.0
2016-Dec-02 23:28N 47°33' W 006°52'12310.8
2016-Dec-02 12:06N 49°12' W 005°00'1912.4
2016-Dec-02 10:33N 49°21' W 004°35'3511.5
2016-Dec-02 07:28N 49°39' W 003°48'1010.3
2016-Dec-02 06:27N 49°44' W 003°33'1010.7
2016-Dec-02 05:33N 49°49' W 003°20'1211.8
2016-Dec-02 04:33N 49°55' W 003°05'1313.1
2016-Dec-02 03:33N 49°60' W 002°46'1714.3
2016-Dec-02 02:22N 50°05' W 002°21'1214.5
2016-Dec-02 01:33N 50°08' W 002°03'1313.2
2016-Dec-02 00:33N 50°11' W 001°43'1111.5
2016-Dec-01 23:33N 50°14' W 001°25'10 9.8
2016-Dec-01 22:33N 50°17' W 001°11'9 8.7
2016-Dec-01 21:29N 50°19' W 000°57'9 8.9
2016-Dec-01 20:29N 50°22' W 000°43'10 9.9
2016-Dec-01 19:26N 50°24' W 000°28'1011.4
2016-Dec-01 18:33N 50°27' W 000°13'1212.4
2016-Dec-01 17:33N 50°31' E 000°06'1312.9
2016-Dec-01 16:34N 50°34' E 000°25'3511.5
2016-Dec-01 13:33N 50°54' E 001°10'9 9.2
2016-Dec-01 12:33N 51°00' E 001°21'10 9.6
2016-Dec-01 11:33N 51°07' E 001°32'1111.1
2016-Dec-01 10:33N 51°14' E 001°46'1312.7
2016-Dec-01 09:33N 51°25' E 001°57'1313.2
2016-Dec-01 08:33N 51°35' E 002°10'1312.7
2016-Dec-01 07:31N 51°45' E 002°23'1211.9
2016-Dec-01 06:29N 51°55' E 002°36'1011.0
2016-Dec-01 05:33N 52°02' E 002°47'1010.4
2016-Dec-01 04:33N 52°10' E 002°58'12 9.8
2016-Dec-01 03:23N 52°20' E 003°08'8 9.7
2016-Dec-01 02:32N 52°27' E 003°15'1010.1
2016-Dec-01 01:31N 52°35' E 003°25'1111.0
2016-Dec-01 00:33N 52°43' E 003°37'2311.6
2016-Nov-30 22:33N 53°00' E 004°03'4510.7
2016-Nov-30 18:20N 53°39' E 004°41'1210.8
2016-Nov-30 17:13N 53°50' E 004°49'710.9
2016-Nov-30 16:33N 53°57' E 004°53'1211.2
2016-Nov-30 15:32N 54°08' E 005°01'1111.2
2016-Nov-30 14:33N 54°17' E 005°08'283 9.1
2016-Nov-29 07:23N 57°49' E 010°44'810.0
2016-Nov-29 06:33N 57°43' E 010°56'1010.2
2016-Nov-29 05:33N 57°36' E 011°10'1010.3
2016-Nov-29 04:33N 57°29' E 011°24'10 9.8
2016-Nov-29 03:33N 57°20' E 011°31'1010.0
2016-Nov-29 02:33N 57°11' E 011°37'55 9.2
2016-Nov-28 20:34N 56°19' E 011°07'1111.3
2016-Nov-28 19:33N 56°07' E 011°06'2511.6
2016-Nov-28 17:25N 55°44' E 010°48'2311.8
2016-Nov-28 15:29N 55°23' E 011°02'1111.8
2016-Nov-28 14:33N 55°12' E 011°05'1110.9
2016-Nov-28 13:34N 55°02' E 010°60'1211.8
2016-Nov-28 12:33N 54°51' E 010°50'1110.9
2016-Nov-28 11:33N 54°40' E 010°48'1010.2
2016-Nov-28 10:33N 54°36' E 011°04'1110.9
2016-Nov-28 09:33N 54°33' E 011°22'1211.6
2016-Nov-28 08:33N 54°28' E 011°40'1111.1
2016-Nov-28 07:33N 54°26' E 011°59'9 9.2
2016-Nov-28 06:33N 54°30' E 012°13'1110.6
2016-Nov-28 05:33N 54°39' E 012°24'5310.5
2016-Nov-28 00:31N 54°43' E 013°55'1010.0
2016-Nov-27 23:32N 54°40' E 014°10'1310.2
2016-Nov-27 22:18N 54°38' E 014°32'810.8
2016-Nov-27 21:32N 54°40' E 014°46'1110.8
2016-Nov-27 20:33N 54°41' E 015°04'1110.7
2016-Nov-27 19:33N 54°43' E 015°22'  
Track history (hours):
 
Tides and Currents Weather Stations Pressure Air Temp Water Temp Dewpoint Dewpoint Depression Visibility Wind Speed Wind Dir Waves Ship Positions

Faneromeni

Last reported at 2016-Dec-07 19:06 UTC. Time now 2016-Dec-09 21:17 UTC.
Position N 36°22' W 002°11'.

Length 230 m; draft 12.5 m.

Type: Ship. MMSI: 240576000.

Date/timePositionNaut miles runAvg speedWind from/ knotsBaromVisibWave heightAir tempDewpointWater temp
2016-Dec-07 19:06N 36°22' W 002°11'6 9.5
2016-Dec-07 18:28N 36°21' W 002°18'8 9.2
2016-Dec-07 17:33N 36°20' W 002°29'9 9.4
2016-Dec-07 16:33N 36°18' W 002°40'1110.1
2016-Dec-07 15:30N 36°17' W 002°53'1010.4
2016-Dec-07 14:32N 36°15' W 003°05'10211.3
2016-Dec-07 05:33N 36°01' W 005°10'1010.1
2016-Dec-07 04:33N 36°05' W 005°22'3 2.5
2016-Dec-07 03:11N 36°08' W 005°23'0 0.2
2016-Dec-07 02:29N 36°08' W 005°23'0 0.1
2016-Dec-07 01:32N 36°08' W 005°23'0 0.1
2016-Dec-06 23:20N 36°08' W 005°23'0 0.0
2016-Dec-06 22:29N 36°08' W 005°23'0 0.0
2016-Dec-06 21:32N 36°08' W 005°23'0 0.2
2016-Dec-06 20:32N 36°08' W 005°23'4 0.8
2016-Dec-06 15:34N 36°06' W 005°19'5 4.6
2016-Dec-06 14:33N 36°07' W 005°13'2 2.1
2016-Dec-06 13:33N 36°06' W 005°15'4 3.7
2016-Dec-06 12:31N 36°03' W 005°18'10 9.9
2016-Dec-06 11:33N 35°57' W 005°28'256 9.8
2016-Dec-05 09:27N 38°15' W 009°59'1011.1
2016-Dec-05 08:33N 38°25' W 010°01'1110.7
2016-Dec-05 07:33N 38°35' W 010°04'1010.5
2016-Dec-05 06:33N 38°46' W 010°07'1010.1
2016-Dec-05 05:33N 38°56' W 010°07'10 9.7
2016-Dec-05 04:33N 39°05' W 010°06'9 9.3
2016-Dec-05 03:33N 39°15' W 010°07'10 9.8
2016-Dec-05 02:33N 39°24' W 010°06'50910.0
2016-Dec-02 23:28N 47°33' W 006°52'12310.8
2016-Dec-02 12:06N 49°12' W 005°00'1912.4
2016-Dec-02 10:33N 49°21' W 004°35'3511.5
2016-Dec-02 07:28N 49°39' W 003°48'1010.3
2016-Dec-02 06:27N 49°44' W 003°33'1010.7
2016-Dec-02 05:33N 49°49' W 003°20'1211.8
2016-Dec-02 04:33N 49°55' W 003°05'1313.1
2016-Dec-02 03:33N 49°60' W 002°46'1714.3
2016-Dec-02 02:22N 50°05' W 002°21'1214.5
2016-Dec-02 01:33N 50°08' W 002°03'1313.2
2016-Dec-02 00:33N 50°11' W 001°43'1111.5
2016-Dec-01 23:33N 50°14' W 001°25'10 9.8
2016-Dec-01 22:33N 50°17' W 001°11'9 8.7
2016-Dec-01 21:29N 50°19' W 000°57'9 8.9
2016-Dec-01 20:29N 50°22' W 000°43'10 9.9
2016-Dec-01 19:26N 50°24' W 000°28'1011.4
2016-Dec-01 18:33N 50°27' W 000°13'1212.4
2016-Dec-01 17:33N 50°31' E 000°06'1312.9
2016-Dec-01 16:34N 50°34' E 000°25'3511.5
2016-Dec-01 13:33N 50°54' E 001°10'9 9.2
2016-Dec-01 12:33N 51°00' E 001°21'10 9.6
2016-Dec-01 11:33N 51°07' E 001°32'1111.1
2016-Dec-01 10:33N 51°14' E 001°46'1312.7
2016-Dec-01 09:33N 51°25' E 001°57'1313.2
2016-Dec-01 08:33N 51°35' E 002°10'1312.7
2016-Dec-01 07:31N 51°45' E 002°23'1211.9
2016-Dec-01 06:29N 51°55' E 002°36'1011.0
2016-Dec-01 05:33N 52°02' E 002°47'1010.4
2016-Dec-01 04:33N 52°10' E 002°58'12 9.8
2016-Dec-01 03:23N 52°20' E 003°08'8 9.7
2016-Dec-01 02:32N 52°27' E 003°15'1010.1
2016-Dec-01 01:31N 52°35' E 003°25'1111.0
2016-Dec-01 00:33N 52°43' E 003°37'2311.6
2016-Nov-30 22:33N 53°00' E 004°03'4510.7
2016-Nov-30 18:20N 53°39' E 004°41'1210.8
2016-Nov-30 17:13N 53°50' E 004°49'710.9
2016-Nov-30 16:33N 53°57' E 004°53'1211.2
2016-Nov-30 15:32N 54°08' E 005°01'1111.2
2016-Nov-30 14:33N 54°17' E 005°08'283 9.1
2016-Nov-29 07:23N 57°49' E 010°44'810.0
2016-Nov-29 06:33N 57°43' E 010°56'1010.2
2016-Nov-29 05:33N 57°36' E 011°10'1010.3
2016-Nov-29 04:33N 57°29' E 011°24'10 9.8
2016-Nov-29 03:33N 57°20' E 011°31'1010.0
2016-Nov-29 02:33N 57°11' E 011°37'55 9.2
2016-Nov-28 20:34N 56°19' E 011°07'1111.3
2016-Nov-28 19:33N 56°07' E 011°06'2511.6
2016-Nov-28 17:25N 55°44' E 010°48'2311.8
2016-Nov-28 15:29N 55°23' E 011°02'1111.8
2016-Nov-28 14:33N 55°12' E 011°05'1110.9
2016-Nov-28 13:34N 55°02' E 010°60'1211.8
2016-Nov-28 12:33N 54°51' E 010°50'1110.9
2016-Nov-28 11:33N 54°40' E 010°48'1010.2
2016-Nov-28 10:33N 54°36' E 011°04'1110.9
2016-Nov-28 09:33N 54°33' E 011°22'1211.6
2016-Nov-28 08:33N 54°28' E 011°40'1111.1
2016-Nov-28 07:33N 54°26' E 011°59'9 9.2
2016-Nov-28 06:33N 54°30' E 012°13'1110.6
2016-Nov-28 05:33N 54°39' E 012°24'5310.5
2016-Nov-28 00:31N 54°43' E 013°55'1010.0
2016-Nov-27 23:32N 54°40' E 014°10'1310.2
2016-Nov-27 22:18N 54°38' E 014°32'810.8
2016-Nov-27 21:32N 54°40' E 014°46'1110.8
2016-Nov-27 20:33N 54°41' E 015°04'1110.7
2016-Nov-27 19:33N 54°43' E 015°22'  

Dump ship's entire track history